sensor_id;sensor_type;location;lat;lon;timestamp;temperature;humidity
56268;DHT22;42175;46.930;9.532;2023-03-05T00:01:25;23.10;36.20
56268;DHT22;42175;46.930;9.532;2023-03-05T00:03:52;23.10;36.20
56268;DHT22;42175;46.930;9.532;2023-03-05T00:06:19;23.10;36.20
56268;DHT22;42175;46.930;9.532;2023-03-05T00:08:45;23.20;36.20
56268;DHT22;42175;46.930;9.532;2023-03-05T00:11:12;23.10;36.10
56268;DHT22;42175;46.930;9.532;2023-03-05T00:13:38;23.10;36.20
56268;DHT22;42175;46.930;9.532;2023-03-05T00:16:06;23.10;36.20
56268;DHT22;42175;46.930;9.532;2023-03-05T00:18:32;23.10;36.10
56268;DHT22;42175;46.930;9.532;2023-03-05T00:20:58;23.20;36.20
56268;DHT22;42175;46.930;9.532;2023-03-05T00:23:24;23.10;36.10
56268;DHT22;42175;46.930;9.532;2023-03-05T00:25:50;23.10;36.20
56268;DHT22;42175;46.930;9.532;2023-03-05T00:28:16;23.10;36.10
56268;DHT22;42175;46.930;9.532;2023-03-05T00:30:42;23.10;36.10
56268;DHT22;42175;46.930;9.532;2023-03-05T00:33:09;23.10;36.10
56268;DHT22;42175;46.930;9.532;2023-03-05T00:35:44;23.10;36.10
56268;DHT22;42175;46.930;9.532;2023-03-05T00:38:11;23.10;36.20
56268;DHT22;42175;46.930;9.532;2023-03-05T00:40:40;23.10;36.10
56268;DHT22;42175;46.930;9.532;2023-03-05T00:43:06;23.10;36.20
56268;DHT22;42175;46.930;9.532;2023-03-05T00:45:33;23.10;36.20
56268;DHT22;42175;46.930;9.532;2023-03-05T00:47:59;23.00;36.00
56268;DHT22;42175;46.930;9.532;2023-03-05T00:50:26;23.10;36.10
56268;DHT22;42175;46.930;9.532;2023-03-05T00:52:52;23.00;36.10
56268;DHT22;42175;46.930;9.532;2023-03-05T00:55:18;23.00;36.00
56268;DHT22;42175;46.930;9.532;2023-03-05T00:57:44;23.10;36.10
56268;DHT22;42175;46.930;9.532;2023-03-05T01:00:11;23.10;36.10
56268;DHT22;42175;46.930;9.532;2023-03-05T01:02:37;23.10;36.00
56268;DHT22;42175;46.930;9.532;2023-03-05T01:05:03;23.10;36.00
56268;DHT22;42175;46.930;9.532;2023-03-05T01:07:30;23.10;35.90
56268;DHT22;42175;46.930;9.532;2023-03-05T01:09:55;23.10;36.00
56268;DHT22;42175;46.930;9.532;2023-03-05T01:12:21;23.10;36.00
56268;DHT22;42175;46.930;9.532;2023-03-05T01:14:47;23.10;36.00
56268;DHT22;42175;46.930;9.532;2023-03-05T01:17:12;23.00;35.90
56268;DHT22;42175;46.930;9.532;2023-03-05T01:19:38;23.10;36.00
56268;DHT22;42175;46.930;9.532;2023-03-05T01:22:04;23.00;36.00
56268;DHT22;42175;46.930;9.532;2023-03-05T01:24:30;23.00;36.10
56268;DHT22;42175;46.930;9.532;2023-03-05T01:26:56;23.00;36.10
56268;DHT22;42175;46.930;9.532;2023-03-05T01:29:23;23.00;36.10
56268;DHT22;42175;46.930;9.532;2023-03-05T01:31:48;23.00;36.00
56268;DHT22;42175;46.930;9.532;2023-03-05T01:34:14;23.00;36.10
56268;DHT22;42175;46.930;9.532;2023-03-05T01:36:41;23.00;36.00
56268;DHT22;42175;46.930;9.532;2023-03-05T01:39:07;23.00;36.00
56268;DHT22;42175;46.930;9.532;2023-03-05T01:41:33;23.00;36.00
56268;DHT22;42175;46.930;9.532;2023-03-05T01:43:59;23.00;36.00
56268;DHT22;42175;46.930;9.532;2023-03-05T01:51:26;23.00;35.90
56268;DHT22;42175;46.930;9.532;2023-03-05T01:53:54;23.00;35.90
56268;DHT22;42175;46.930;9.532;2023-03-05T01:56:22;23.00;35.90
56268;DHT22;42175;46.930;9.532;2023-03-05T01:58:49;23.00;35.80
56268;DHT22;42175;46.930;9.532;2023-03-05T02:01:16;23.00;35.90
56268;DHT22;42175;46.930;9.532;2023-03-05T02:03:42;23.00;35.90
56268;DHT22;42175;46.930;9.532;2023-03-05T02:06:09;23.00;35.90
56268;DHT22;42175;46.930;9.532;2023-03-05T02:08:35;23.00;35.90
56268;DHT22;42175;46.930;9.532;2023-03-05T02:11:01;23.00;36.50
56268;DHT22;42175;46.930;9.532;2023-03-05T02:13:32;23.00;35.90
56268;DHT22;42175;46.930;9.532;2023-03-05T02:15:59;23.00;35.90
56268;DHT22;42175;46.930;9.532;2023-03-05T02:18:25;23.00;35.90
56268;DHT22;42175;46.930;9.532;2023-03-05T02:23:22;23.00;35.90
56268;DHT22;42175;46.930;9.532;2023-03-05T02:25:48;23.00;35.90
56268;DHT22;42175;46.930;9.532;2023-03-05T02:28:18;23.00;35.90
56268;DHT22;42175;46.930;9.532;2023-03-05T02:30:46;23.00;35.90
56268;DHT22;42175;46.930;9.532;2023-03-05T02:33:14;23.00;35.90
56268;DHT22;42175;46.930;9.532;2023-03-05T02:35:39;23.00;35.90
56268;DHT22;42175;46.930;9.532;2023-03-05T02:38:05;23.00;35.80
56268;DHT22;42175;46.930;9.532;2023-03-05T02:40:31;23.00;35.90
56268;DHT22;42175;46.930;9.532;2023-03-05T02:42:57;22.90;35.90
56268;DHT22;42175;46.930;9.532;2023-03-05T02:45:22;23.00;35.90
56268;DHT22;42175;46.930;9.532;2023-03-05T02:47:48;22.90;35.70
56268;DHT22;42175;46.930;9.532;2023-03-05T02:50:14;23.00;35.70
56268;DHT22;42175;46.930;9.532;2023-03-05T02:52:40;23.00;35.70
56268;DHT22;42175;46.930;9.532;2023-03-05T02:55:06;22.90;35.70
56268;DHT22;42175;46.930;9.532;2023-03-05T02:57:32;23.00;35.80
56268;DHT22;42175;46.930;9.532;2023-03-05T02:59:58;22.90;35.80
56268;DHT22;42175;46.930;9.532;2023-03-05T03:02:24;22.90;35.70
56268;DHT22;42175;46.930;9.532;2023-03-05T03:04:49;23.00;35.70
56268;DHT22;42175;46.930;9.532;2023-03-05T03:07:15;23.00;35.70
56268;DHT22;42175;46.930;9.532;2023-03-05T03:09:41;22.90;35.70
56268;DHT22;42175;46.930;9.532;2023-03-05T03:12:08;23.00;35.70
56268;DHT22;42175;46.930;9.532;2023-03-05T03:14:36;22.90;35.70
56268;DHT22;42175;46.930;9.532;2023-03-05T03:17:15;23.00;35.70
56268;DHT22;42175;46.930;9.532;2023-03-05T03:19:42;23.00;35.70
56268;DHT22;42175;46.930;9.532;2023-03-05T03:22:09;23.00;35.70
56268;DHT22;42175;46.930;9.532;2023-03-05T03:24:36;23.00;35.60
56268;DHT22;42175;46.930;9.532;2023-03-05T03:27:02;22.90;35.60
56268;DHT22;42175;46.930;9.532;2023-03-05T03:29:28;22.90;35.60
56268;DHT22;42175;46.930;9.532;2023-03-05T03:31:54;22.90;35.60
56268;DHT22;42175;46.930;9.532;2023-03-05T03:34:20;22.90;35.60
56268;DHT22;42175;46.930;9.532;2023-03-05T03:36:47;22.90;35.60
56268;DHT22;42175;46.930;9.532;2023-03-05T03:39:13;22.90;35.50
56268;DHT22;42175;46.930;9.532;2023-03-05T03:41:47;22.90;35.50
56268;DHT22;42175;46.930;9.532;2023-03-05T03:44:13;22.90;35.60
56268;DHT22;42175;46.930;9.532;2023-03-05T03:46:39;22.90;35.60
56268;DHT22;42175;46.930;9.532;2023-03-05T03:49:06;22.90;35.70
56268;DHT22;42175;46.930;9.532;2023-03-05T03:51:35;22.90;35.50
56268;DHT22;42175;46.930;9.532;2023-03-05T03:54:00;22.90;35.50
56268;DHT22;42175;46.930;9.532;2023-03-05T03:56:26;22.90;35.50
56268;DHT22;42175;46.930;9.532;2023-03-05T03:58:53;22.90;36.10
56268;DHT22;42175;46.930;9.532;2023-03-05T04:01:21;22.90;35.50
56268;DHT22;42175;46.930;9.532;2023-03-05T04:03:47;22.90;35.40
56268;DHT22;42175;46.930;9.532;2023-03-05T04:06:13;22.90;35.50
56268;DHT22;42175;46.930;9.532;2023-03-05T04:08:39;22.90;35.50
56268;DHT22;42175;46.930;9.532;2023-03-05T04:11:05;22.90;36.10
56268;DHT22;42175;46.930;9.532;2023-03-05T04:13:31;22.90;35.60
56268;DHT22;42175;46.930;9.532;2023-03-05T04:15:57;22.90;35.50
56268;DHT22;42175;46.930;9.532;2023-03-05T04:18:23;22.90;35.60
56268;DHT22;42175;46.930;9.532;2023-03-05T04:20:49;22.90;35.60
56268;DHT22;42175;46.930;9.532;2023-03-05T04:23:15;22.90;35.60
56268;DHT22;42175;46.930;9.532;2023-03-05T04:25:41;22.90;35.50
56268;DHT22;42175;46.930;9.532;2023-03-05T04:28:07;22.90;35.60
56268;DHT22;42175;46.930;9.532;2023-03-05T04:30:33;22.90;35.60
56268;DHT22;42175;46.930;9.532;2023-03-05T04:32:58;22.90;35.50
56268;DHT22;42175;46.930;9.532;2023-03-05T04:35:24;22.90;35.50
56268;DHT22;42175;46.930;9.532;2023-03-05T04:37:50;22.90;35.50
56268;DHT22;42175;46.930;9.532;2023-03-05T04:40:16;22.90;35.50
56268;DHT22;42175;46.930;9.532;2023-03-05T04:42:42;22.90;35.50
56268;DHT22;42175;46.930;9.532;2023-03-05T04:45:09;22.90;35.50
56268;DHT22;42175;46.930;9.532;2023-03-05T04:47:35;22.90;35.50
56268;DHT22;42175;46.930;9.532;2023-03-05T04:50:03;22.80;35.50
56268;DHT22;42175;46.930;9.532;2023-03-05T04:52:29;22.80;35.50
56268;DHT22;42175;46.930;9.532;2023-03-05T04:54:54;22.80;35.50
56268;DHT22;42175;46.930;9.532;2023-03-05T04:57:20;22.90;35.50
56268;DHT22;42175;46.930;9.532;2023-03-05T04:59:46;22.90;35.50
56268;DHT22;42175;46.930;9.532;2023-03-05T05:02:11;22.90;35.40
56268;DHT22;42175;46.930;9.532;2023-03-05T05:04:37;22.80;35.40
56268;DHT22;42175;46.930;9.532;2023-03-05T05:07:03;22.80;35.40
56268;DHT22;42175;46.930;9.532;2023-03-05T05:09:29;22.80;35.40
56268;DHT22;42175;46.930;9.532;2023-03-05T05:11:55;22.90;35.50
56268;DHT22;42175;46.930;9.532;2023-03-05T05:14:20;22.80;35.40
56268;DHT22;42175;46.930;9.532;2023-03-05T05:16:46;22.90;35.50
56268;DHT22;42175;46.930;9.532;2023-03-05T05:19:12;22.80;35.40
56268;DHT22;42175;46.930;9.532;2023-03-05T05:21:38;22.80;35.40
56268;DHT22;42175;46.930;9.532;2023-03-05T05:24:04;22.80;35.40
56268;DHT22;42175;46.930;9.532;2023-03-05T05:26:30;22.80;35.40
56268;DHT22;42175;46.930;9.532;2023-03-05T05:28:55;22.80;35.30
56268;DHT22;42175;46.930;9.532;2023-03-05T05:31:21;22.80;35.30
56268;DHT22;42175;46.930;9.532;2023-03-05T05:33:47;22.80;35.30
56268;DHT22;42175;46.930;9.532;2023-03-05T05:36:14;22.80;35.30
56268;DHT22;42175;46.930;9.532;2023-03-05T05:38:41;22.80;35.30
56268;DHT22;42175;46.930;9.532;2023-03-05T05:41:12;22.80;35.20
56268;DHT22;42175;46.930;9.532;2023-03-05T05:43:38;22.80;35.30
56268;DHT22;42175;46.930;9.532;2023-03-05T05:46:07;22.80;35.30
56268;DHT22;42175;46.930;9.532;2023-03-05T05:48:34;22.80;35.20
56268;DHT22;42175;46.930;9.532;2023-03-05T05:51:05;22.80;35.20
56268;DHT22;42175;46.930;9.532;2023-03-05T05:53:31;22.80;35.20
56268;DHT22;42175;46.930;9.532;2023-03-05T05:55:57;22.80;35.20
56268;DHT22;42175;46.930;9.532;2023-03-05T05:58:23;22.80;35.20
56268;DHT22;42175;46.930;9.532;2023-03-05T06:00:48;22.80;35.10
56268;DHT22;42175;46.930;9.532;2023-03-05T06:03:14;22.80;35.20
56268;DHT22;42175;46.930;9.532;2023-03-05T06:05:41;22.80;35.20
56268;DHT22;42175;46.930;9.532;2023-03-05T06:08:07;22.80;35.20
56268;DHT22;42175;46.930;9.532;2023-03-05T06:10:33;22.80;35.20
56268;DHT22;42175;46.930;9.532;2023-03-05T06:12:59;22.80;35.10
56268;DHT22;42175;46.930;9.532;2023-03-05T06:15:25;22.80;35.20
56268;DHT22;42175;46.930;9.532;2023-03-05T06:17:50;22.80;35.10
56268;DHT22;42175;46.930;9.532;2023-03-05T06:20:17;22.80;35.10
56268;DHT22;42175;46.930;9.532;2023-03-05T06:22:43;22.80;35.10
56268;DHT22;42175;46.930;9.532;2023-03-05T06:25:09;22.80;35.20
56268;DHT22;42175;46.930;9.532;2023-03-05T06:27:36;22.80;35.10
56268;DHT22;42175;46.930;9.532;2023-03-05T06:30:03;22.80;35.10
56268;DHT22;42175;46.930;9.532;2023-03-05T06:32:29;22.80;35.00
56268;DHT22;42175;46.930;9.532;2023-03-05T06:34:54;22.80;35.10
56268;DHT22;42175;46.930;9.532;2023-03-05T06:37:20;22.80;35.10
56268;DHT22;42175;46.930;9.532;2023-03-05T06:39:46;22.80;35.70
56268;DHT22;42175;46.930;9.532;2023-03-05T06:42:11;22.80;35.10
56268;DHT22;42175;46.930;9.532;2023-03-05T06:44:39;22.80;35.10
56268;DHT22;42175;46.930;9.532;2023-03-05T06:47:08;22.80;35.00
56268;DHT22;42175;46.930;9.532;2023-03-05T06:49:37;22.80;35.10
56268;DHT22;42175;46.930;9.532;2023-03-05T06:52:04;22.80;35.10
56268;DHT22;42175;46.930;9.532;2023-03-05T06:54:31;22.80;35.10
56268;DHT22;42175;46.930;9.532;2023-03-05T06:56:57;22.80;35.10
56268;DHT22;42175;46.930;9.532;2023-03-05T06:59:22;22.80;35.10
56268;DHT22;42175;46.930;9.532;2023-03-05T07:01:48;22.80;35.20
56268;DHT22;42175;46.930;9.532;2023-03-05T07:04:15;22.80;35.00
56268;DHT22;42175;46.930;9.532;2023-03-05T07:06:41;22.80;35.20
56268;DHT22;42175;46.930;9.532;2023-03-05T07:09:10;22.80;35.10
56268;DHT22;42175;46.930;9.532;2023-03-05T07:11:37;22.80;35.70
56268;DHT22;42175;46.930;9.532;2023-03-05T07:14:03;22.90;36.60
56268;DHT22;42175;46.930;9.532;2023-03-05T07:16:31;22.90;36.30
56268;DHT22;42175;46.930;9.532;2023-03-05T07:18:59;22.90;36.30
56268;DHT22;42175;46.930;9.532;2023-03-05T07:21:27;22.90;36.40
56268;DHT22;42175;46.930;9.532;2023-03-05T07:23:54;22.90;36.30
56268;DHT22;42175;46.930;9.532;2023-03-05T07:26:21;22.90;36.60
56268;DHT22;42175;46.930;9.532;2023-03-05T07:28:47;22.90;36.40
56268;DHT22;42175;46.930;9.532;2023-03-05T07:31:18;22.90;36.40
56268;DHT22;42175;46.930;9.532;2023-03-05T07:33:46;22.90;36.40
56268;DHT22;42175;46.930;9.532;2023-03-05T07:36:12;22.80;36.60
56268;DHT22;42175;46.930;9.532;2023-03-05T07:38:38;22.80;36.70
56268;DHT22;42175;46.930;9.532;2023-03-05T07:41:12;22.90;36.80
56268;DHT22;42175;46.930;9.532;2023-03-05T07:43:39;22.90;36.80
56268;DHT22;42175;46.930;9.532;2023-03-05T07:46:10;22.90;36.80
56268;DHT22;42175;46.930;9.532;2023-03-05T07:48:37;22.80;36.80
56268;DHT22;42175;46.930;9.532;2023-03-05T07:51:04;22.80;36.90
56268;DHT22;42175;46.930;9.532;2023-03-05T07:53:31;22.80;36.90
56268;DHT22;42175;46.930;9.532;2023-03-05T07:55:56;22.90;37.50
56268;DHT22;42175;46.930;9.532;2023-03-05T07:58:22;22.80;37.50
56268;DHT22;42175;46.930;9.532;2023-03-05T08:00:48;22.80;37.00
56268;DHT22;42175;46.930;9.532;2023-03-05T08:03:14;22.90;36.70
56268;DHT22;42175;46.930;9.532;2023-03-05T08:05:40;22.80;36.80
56268;DHT22;42175;46.930;9.532;2023-03-05T08:08:06;22.80;36.70
56268;DHT22;42175;46.930;9.532;2023-03-05T08:10:34;22.80;36.50
56268;DHT22;42175;46.930;9.532;2023-03-05T08:13:00;22.80;36.30
56268;DHT22;42175;46.930;9.532;2023-03-05T08:15:25;22.80;36.00
56268;DHT22;42175;46.930;9.532;2023-03-05T08:17:51;22.80;36.60
56268;DHT22;42175;46.930;9.532;2023-03-05T08:20:17;22.80;36.00
56268;DHT22;42175;46.930;9.532;2023-03-05T08:22:44;22.80;36.00
56268;DHT22;42175;46.930;9.532;2023-03-05T08:25:11;22.80;36.00
56268;DHT22;42175;46.930;9.532;2023-03-05T08:27:39;22.80;36.00
56268;DHT22;42175;46.930;9.532;2023-03-05T08:30:07;22.80;35.90
56268;DHT22;42175;46.930;9.532;2023-03-05T08:32:32;22.80;35.80
56268;DHT22;42175;46.930;9.532;2023-03-05T08:34:58;22.80;35.60
56268;DHT22;42175;46.930;9.532;2023-03-05T08:37:24;22.80;35.50
56268;DHT22;42175;46.930;9.532;2023-03-05T08:39:50;22.80;35.40
56268;DHT22;42175;46.930;9.532;2023-03-05T08:42:16;22.80;35.30
56268;DHT22;42175;46.930;9.532;2023-03-05T08:44:41;22.80;35.30
56268;DHT22;42175;46.930;9.532;2023-03-05T08:47:07;22.80;35.30
56268;DHT22;42175;46.930;9.532;2023-03-05T08:49:32;22.80;35.20
56268;DHT22;42175;46.930;9.532;2023-03-05T08:51:58;22.80;35.10
56268;DHT22;42175;46.930;9.532;2023-03-05T08:54:24;22.80;35.00
56268;DHT22;42175;46.930;9.532;2023-03-05T08:56:49;22.80;34.90
56268;DHT22;42175;46.930;9.532;2023-03-05T08:59:15;22.80;34.90
56268;DHT22;42175;46.930;9.532;2023-03-05T09:01:41;21.80;28.30
56268;DHT22;42175;46.930;9.532;2023-03-05T09:04:08;21.20;29.60
56268;DHT22;42175;46.930;9.532;2023-03-05T09:06:33;20.90;30.20
56268;DHT22;42175;46.930;9.532;2023-03-05T09:09:03;20.30;30.00
56268;DHT22;42175;46.930;9.532;2023-03-05T09:11:29;20.10;30.00
56268;DHT22;42175;46.930;9.532;2023-03-05T09:13:55;19.00;30.50
56268;DHT22;42175;46.930;9.532;2023-03-05T09:16:20;19.20;31.80
56268;DHT22;42175;46.930;9.532;2023-03-05T09:18:46;19.80;32.00
56268;DHT22;42175;46.930;9.532;2023-03-05T09:21:14;20.30;32.30
56268;DHT22;42175;46.930;9.532;2023-03-05T09:23:41;20.60;32.40
56268;DHT22;42175;46.930;9.532;2023-03-05T09:26:09;20.80;32.70
56268;DHT22;42175;46.930;9.532;2023-03-05T09:28:36;21.00;32.90
56268;DHT22;42175;46.930;9.532;2023-03-05T09:31:04;21.10;33.00
56268;DHT22;42175;46.930;9.532;2023-03-05T09:33:31;21.30;33.20
56268;DHT22;42175;46.930;9.532;2023-03-05T09:35:58;21.40;33.40
56268;DHT22;42175;46.930;9.532;2023-03-05T09:38:24;21.40;33.60
56268;DHT22;42175;46.930;9.532;2023-03-05T09:51:43;21.70;33.60
56268;DHT22;42175;46.930;9.532;2023-03-05T09:54:24;21.80;33.70
56268;DHT22;42175;46.930;9.532;2023-03-05T09:56:55;21.90;33.80
56268;DHT22;42175;46.930;9.532;2023-03-05T10:02:36;21.90;33.70
56268;DHT22;42175;46.930;9.532;2023-03-05T10:05:19;22.00;33.90
56268;DHT22;42175;46.930;9.532;2023-03-05T10:08:07;22.00;33.80
56268;DHT22;42175;46.930;9.532;2023-03-05T10:10:54;22.00;33.80
56268;DHT22;42175;46.930;9.532;2023-03-05T10:13:29;22.00;33.80
56268;DHT22;42175;46.930;9.532;2023-03-05T10:21:30;22.20;34.00
56268;DHT22;42175;46.930;9.532;2023-03-05T10:37:49;22.20;34.00
56268;DHT22;42175;46.930;9.532;2023-03-05T10:43:23;22.30;34.10
56268;DHT22;42175;46.930;9.532;2023-03-05T10:45:52;22.40;34.10
56268;DHT22;42175;46.930;9.532;2023-03-05T10:48:42;22.30;33.70
56268;DHT22;42175;46.930;9.532;2023-03-05T10:51:37;22.30;33.70
56268;DHT22;42175;46.930;9.532;2023-03-05T10:54:23;22.30;33.50
56268;DHT22;42175;46.930;9.532;2023-03-05T10:59:36;22.40;33.90
56268;DHT22;42175;46.930;9.532;2023-03-05T11:02:08;22.40;33.80
56268;DHT22;42175;46.930;9.532;2023-03-05T11:04:38;22.40;33.80
56268;DHT22;42175;46.930;9.532;2023-03-05T11:07:27;22.40;33.90
56268;DHT22;42175;46.930;9.532;2023-03-05T11:12:31;22.50;33.80
56268;DHT22;42175;46.930;9.532;2023-03-05T11:17:42;22.50;33.90
56268;DHT22;42175;46.930;9.532;2023-03-05T11:23:12;22.50;33.80
56268;DHT22;42175;46.930;9.532;2023-03-05T11:31:00;22.50;33.80
56268;DHT22;42175;46.930;9.532;2023-03-05T11:33:27;22.50;33.70
56268;DHT22;42175;46.930;9.532;2023-03-05T11:36:19;22.50;33.80
56268;DHT22;42175;46.930;9.532;2023-03-05T11:41:27;22.60;33.80
56268;DHT22;42175;46.930;9.532;2023-03-05T11:43:54;22.60;33.40
56268;DHT22;42175;46.930;9.532;2023-03-05T11:46:21;22.50;33.50
56268;DHT22;42175;46.930;9.532;2023-03-05T11:48:47;22.50;33.40
56268;DHT22;42175;46.930;9.532;2023-03-05T11:51:31;22.60;33.70
56268;DHT22;42175;46.930;9.532;2023-03-05T11:54:10;22.60;33.60
56268;DHT22;42175;46.930;9.532;2023-03-05T11:56:41;22.60;33.80
56268;DHT22;42175;46.930;9.532;2023-03-05T11:59:24;22.70;33.90
56268;DHT22;42175;46.930;9.532;2023-03-05T12:01:55;22.60;34.00
56268;DHT22;42175;46.930;9.532;2023-03-05T12:04:22;22.70;34.10
56268;DHT22;42175;46.930;9.532;2023-03-05T12:06:56;22.70;34.10
56268;DHT22;42175;46.930;9.532;2023-03-05T12:11:55;22.70;34.10
56268;DHT22;42175;46.930;9.532;2023-03-05T12:14:41;22.70;34.20
56268;DHT22;42175;46.930;9.532;2023-03-05T12:20:21;22.80;34.30
56268;DHT22;42175;46.930;9.532;2023-03-05T12:22:40;22.80;34.40
56268;DHT22;42175;46.930;9.532;2023-03-05T12:27:59;22.80;34.40
56268;DHT22;42175;46.930;9.532;2023-03-05T12:33:01;22.80;34.40
56268;DHT22;42175;46.930;9.532;2023-03-05T12:35:36;22.80;34.50
56268;DHT22;42175;46.930;9.532;2023-03-05T12:38:12;22.80;34.70
56268;DHT22;42175;46.930;9.532;2023-03-05T12:40:41;22.80;34.80
56268;DHT22;42175;46.930;9.532;2023-03-05T12:43:32;22.80;34.80
56268;DHT22;42175;46.930;9.532;2023-03-05T12:46:28;22.80;35.00
56268;DHT22;42175;46.930;9.532;2023-03-05T12:48:54;22.80;35.10
56268;DHT22;42175;46.930;9.532;2023-03-05T12:51:31;22.80;35.10
56268;DHT22;42175;46.930;9.532;2023-03-05T12:56:46;22.80;35.20
56268;DHT22;42175;46.930;9.532;2023-03-05T12:59:13;22.80;35.20
56268;DHT22;42175;46.930;9.532;2023-03-05T13:04:31;22.90;35.20
56268;DHT22;42175;46.930;9.532;2023-03-05T13:09:27;22.80;35.10
56268;DHT22;42175;46.930;9.532;2023-03-05T13:11:54;22.80;35.10
56268;DHT22;42175;46.930;9.532;2023-03-05T13:16:57;22.90;35.20
56268;DHT22;42175;46.930;9.532;2023-03-05T13:19:23;22.80;35.10
56268;DHT22;42175;46.930;9.532;2023-03-05T13:22:03;22.80;35.20
56268;DHT22;42175;46.930;9.532;2023-03-05T13:24:34;22.80;35.20
56268;DHT22;42175;46.930;9.532;2023-03-05T13:26:59;22.90;35.10
56268;DHT22;42175;46.930;9.532;2023-03-05T13:29:26;22.90;35.10
56268;DHT22;42175;46.930;9.532;2023-03-05T13:32:24;22.90;35.10
56268;DHT22;42175;46.930;9.532;2023-03-05T13:34:50;22.90;35.30
56268;DHT22;42175;46.930;9.532;2023-03-05T13:37:19;22.90;35.30
56268;DHT22;42175;46.930;9.532;2023-03-05T13:39:55;22.90;35.20
56268;DHT22;42175;46.930;9.532;2023-03-05T13:45:02;22.90;35.10
56268;DHT22;42175;46.930;9.532;2023-03-05T13:47:30;22.90;35.10
56268;DHT22;42175;46.930;9.532;2023-03-05T13:50:18;23.00;35.20
56268;DHT22;42175;46.930;9.532;2023-03-05T13:52:46;23.00;35.20
56268;DHT22;42175;46.930;9.532;2023-03-05T13:55:13;23.00;35.10
56268;DHT22;42175;46.930;9.532;2023-03-05T13:57:41;22.90;35.00
56268;DHT22;42175;46.930;9.532;2023-03-05T14:02:52;23.00;35.00
56268;DHT22;42175;46.930;9.532;2023-03-05T14:05:18;23.00;35.00
56268;DHT22;42175;46.930;9.532;2023-03-05T14:07:47;23.00;35.00
56268;DHT22;42175;46.930;9.532;2023-03-05T14:10:37;23.00;34.90
56268;DHT22;42175;46.930;9.532;2023-03-05T14:13:10;23.00;34.90
56268;DHT22;42175;46.930;9.532;2023-03-05T14:15:36;23.00;34.90
56268;DHT22;42175;46.930;9.532;2023-03-05T14:28:53;23.00;34.80
56268;DHT22;42175;46.930;9.532;2023-03-05T14:31:19;23.00;34.80
56268;DHT22;42175;46.930;9.532;2023-03-05T14:33:46;23.00;34.70
56268;DHT22;42175;46.930;9.532;2023-03-05T14:36:12;23.00;34.80
56268;DHT22;42175;46.930;9.532;2023-03-05T14:38:40;23.00;34.70
56268;DHT22;42175;46.930;9.532;2023-03-05T14:44:12;23.00;34.70
56268;DHT22;42175;46.930;9.532;2023-03-05T14:46:38;23.00;34.70
56268;DHT22;42175;46.930;9.532;2023-03-05T14:49:04;23.00;34.70
56268;DHT22;42175;46.930;9.532;2023-03-05T14:51:32;23.00;34.70
56268;DHT22;42175;46.930;9.532;2023-03-05T14:53:59;23.00;34.80
56268;DHT22;42175;46.930;9.532;2023-03-05T14:56:27;23.00;35.00
56268;DHT22;42175;46.930;9.532;2023-03-05T14:58:53;23.00;35.00
56268;DHT22;42175;46.930;9.532;2023-03-05T15:01:19;23.00;34.90
56268;DHT22;42175;46.930;9.532;2023-03-05T15:03:45;23.00;34.90
56268;DHT22;42175;46.930;9.532;2023-03-05T15:06:24;23.00;35.00
56268;DHT22;42175;46.930;9.532;2023-03-05T15:08:52;23.00;34.90
56268;DHT22;42175;46.930;9.532;2023-03-05T15:11:17;23.00;34.80
56268;DHT22;42175;46.930;9.532;2023-03-05T15:13:43;23.00;34.80
56268;DHT22;42175;46.930;9.532;2023-03-05T15:16:13;23.00;34.70
56268;DHT22;42175;46.930;9.532;2023-03-05T15:18:39;23.00;34.70
56268;DHT22;42175;46.930;9.532;2023-03-05T15:21:05;23.00;34.70
56268;DHT22;42175;46.930;9.532;2023-03-05T15:23:32;23.00;34.60
56268;DHT22;42175;46.930;9.532;2023-03-05T15:26:02;23.00;34.60
56268;DHT22;42175;46.930;9.532;2023-03-05T15:28:35;23.00;34.30
56268;DHT22;42175;46.930;9.532;2023-03-05T15:31:02;23.00;34.50
56268;DHT22;42175;46.930;9.532;2023-03-05T15:33:29;23.00;34.50
56268;DHT22;42175;46.930;9.532;2023-03-05T15:35:55;23.00;34.30
56268;DHT22;42175;46.930;9.532;2023-03-05T15:38:21;23.10;34.20
56268;DHT22;42175;46.930;9.532;2023-03-05T15:40:48;23.10;34.40
56268;DHT22;42175;46.930;9.532;2023-03-05T15:43:15;23.10;34.40
56268;DHT22;42175;46.930;9.532;2023-03-05T15:45:41;23.10;34.40
56268;DHT22;42175;46.930;9.532;2023-03-05T15:48:07;23.10;34.10
56268;DHT22;42175;46.930;9.532;2023-03-05T15:50:33;23.10;34.00
56268;DHT22;42175;46.930;9.532;2023-03-05T15:52:58;23.00;34.10
56268;DHT22;42175;46.930;9.532;2023-03-05T15:55:24;23.00;34.20
56268;DHT22;42175;46.930;9.532;2023-03-05T15:57:52;23.00;34.30
56268;DHT22;42175;46.930;9.532;2023-03-05T16:00:24;23.10;34.50
56268;DHT22;42175;46.930;9.532;2023-03-05T16:02:51;23.10;34.50
56268;DHT22;42175;46.930;9.532;2023-03-05T16:05:16;23.10;34.60
56268;DHT22;42175;46.930;9.532;2023-03-05T16:07:45;23.10;34.60
56268;DHT22;42175;46.930;9.532;2023-03-05T16:10:14;23.10;34.40
56268;DHT22;42175;46.930;9.532;2023-03-05T16:12:44;23.10;34.60
56268;DHT22;42175;46.930;9.532;2023-03-05T16:15:19;23.10;34.50
56268;DHT22;42175;46.930;9.532;2023-03-05T16:17:48;23.10;34.50
56268;DHT22;42175;46.930;9.532;2023-03-05T16:20:15;23.10;34.50
56268;DHT22;42175;46.930;9.532;2023-03-05T16:22:41;23.10;34.50
56268;DHT22;42175;46.930;9.532;2023-03-05T16:25:07;23.10;34.50
56268;DHT22;42175;46.930;9.532;2023-03-05T16:27:33;23.10;34.40
56268;DHT22;42175;46.930;9.532;2023-03-05T16:29:59;23.10;34.40
56268;DHT22;42175;46.930;9.532;2023-03-05T16:32:24;23.10;34.50
56268;DHT22;42175;46.930;9.532;2023-03-05T16:34:50;23.10;34.50
56268;DHT22;42175;46.930;9.532;2023-03-05T16:37:19;23.20;34.50
56268;DHT22;42175;46.930;9.532;2023-03-05T16:39:45;23.10;34.50
56268;DHT22;42175;46.930;9.532;2023-03-05T16:42:11;23.10;34.50
56268;DHT22;42175;46.930;9.532;2023-03-05T16:44:39;23.10;34.60
56268;DHT22;42175;46.930;9.532;2023-03-05T16:47:05;23.20;34.90
56268;DHT22;42175;46.930;9.532;2023-03-05T16:49:32;23.10;35.10
56268;DHT22;42175;46.930;9.532;2023-03-05T16:52:00;23.10;35.40
56268;DHT22;42175;46.930;9.532;2023-03-05T16:54:25;23.20;35.40
56268;DHT22;42175;46.930;9.532;2023-03-05T16:56:51;23.10;35.40
56268;DHT22;42175;46.930;9.532;2023-03-05T16:59:18;23.20;35.50
56268;DHT22;42175;46.930;9.532;2023-03-05T17:01:44;23.20;35.40
56268;DHT22;42175;46.930;9.532;2023-03-05T17:04:09;23.10;35.70
56268;DHT22;42175;46.930;9.532;2023-03-05T17:06:35;23.20;35.90
56268;DHT22;42175;46.930;9.532;2023-03-05T17:09:02;23.20;36.00
56268;DHT22;42175;46.930;9.532;2023-03-05T17:11:28;23.20;36.10
56268;DHT22;42175;46.930;9.532;2023-03-05T17:13:53;23.20;35.90
56268;DHT22;42175;46.930;9.532;2023-03-05T17:16:20;23.20;35.90
56268;DHT22;42175;46.930;9.532;2023-03-05T17:18:46;23.20;35.90